Westhampton Beach, New York
Current Conditions -  °F | °C
As of 11:53 PM on Monday 26 Jan 2015 (Local Time) from KFOK Reporting Station
Moderate Snow Moderate Snow  
Wind Chill: 10°   Ceiling: 900
Heat Index: 26°   Visibility: 0.5mi
Dew Point: 23°   Wind: 29mph
Humidity: 88%   Direction: 20°NNE
Pressure: 29.59"   Gusts: 40mph
Location:  40.8°N, 72.61°W
Report Text: KFOK 270453Z 02025G35KT 1/2SM SN FZFG VV009 M03/M05 A2959 RMK AO2 PK WND 02036/0429 SLP021 P0005 T10331050 410111044
Loading
Personal Weather Stations






























Interactive Weather Map New forecast layout! Learn more

10-Day Weather Forecast

Advertisements
Track Severe Weather on mobile